createdAt,value
2022-09-28T00:02:44.838Z,7.94
2022-09-28T00:07:46.978Z,8.16
2022-09-28T00:12:53.179Z,8.22
2022-09-28T00:17:54.882Z,8.26
2022-09-28T00:22:56.513Z,8.21
2022-09-28T00:27:58.155Z,8.31
2022-09-28T00:32:59.752Z,8.48
2022-09-28T00:38:02.376Z,8.33
2022-09-28T00:43:20.939Z,8.29
2022-09-28T00:48:23.509Z,8.49
2022-09-28T00:53:30.187Z,8.42
2022-09-28T00:58:35.124Z,8.31
2022-09-28T01:03:37.704Z,8.34
2022-09-28T01:08:40.070Z,8.32
2022-09-28T01:13:43.424Z,8.29
2022-09-28T01:19:06.143Z,8.22
2022-09-28T01:24:37.461Z,8.23
2022-09-28T01:29:55.500Z,8.27
2022-09-28T01:35:00.537Z,8.27
2022-09-28T01:40:04.362Z,8.26
2022-09-28T01:45:12.473Z,8.18
2022-09-28T01:50:20.457Z,8.04
2022-09-28T01:55:32.336Z,8.06
2022-09-28T02:00:39.562Z,8.05
2022-09-28T02:05:43.988Z,7.82
2022-09-28T02:10:54.084Z,7.85
2022-09-28T02:16:06.990Z,7.76
2022-09-28T02:21:17.782Z,7.59
2022-09-28T02:26:22.812Z,7.59
2022-09-28T02:31:24.599Z,7.57
2022-09-28T02:36:28.520Z,7.49
2022-09-28T02:41:57.170Z,7.52
2022-09-28T02:47:14.148Z,7.59
2022-09-28T02:52:33.016Z,7.52
2022-09-28T02:58:12.162Z,7.32
2022-09-28T03:03:25.517Z,7.16
2022-09-28T03:08:59.624Z,7.05
2022-09-28T03:14:05.863Z,6.95
2022-09-28T03:19:30.410Z,6.75
2022-09-28T03:24:32.053Z,6.79
2022-09-28T03:29:34.486Z,6.70
2022-09-28T03:34:40.280Z,6.66
2022-09-28T03:39:42.168Z,6.77
2022-09-28T03:44:43.884Z,6.85
2022-09-28T03:49:46.278Z,7.01
2022-09-28T03:54:49.510Z,6.95
2022-09-28T03:59:51.384Z,7.10
2022-09-28T04:04:53.055Z,7.27
2022-09-28T04:09:55.036Z,7.25
2022-09-28T04:14:56.768Z,7.10
2022-09-28T04:19:58.402Z,7.06
2022-09-28T04:25:15.120Z,7.36
2022-09-28T04:30:17.001Z,6.96
2022-09-28T04:35:20.207Z,7.00
2022-09-28T04:40:22.559Z,7.12
2022-09-28T04:45:27.578Z,7.06
2022-09-28T04:50:34.936Z,7.09
2022-09-28T04:55:59.312Z,6.97
2022-09-28T05:01:05.770Z,7.01
2022-09-28T05:06:42.538Z,6.96
2022-09-28T05:11:44.188Z,7.09
2022-09-28T05:16:51.537Z,6.99
2022-09-28T05:22:04.584Z,7.11
2022-09-28T05:27:12.331Z,7.12
2022-09-28T05:32:14.207Z,7.14
2022-09-28T05:37:24.317Z,7.14
2022-09-28T05:42:25.969Z,7.47
2022-09-28T05:47:27.693Z,7.51
2022-09-28T05:52:29.673Z,7.59
2022-09-28T05:57:31.503Z,7.65
2022-09-28T06:02:33.665Z,7.87
2022-09-28T06:07:35.435Z,7.78
2022-09-28T06:12:37.167Z,7.83
2022-09-28T06:17:44.624Z,8.06
2022-09-28T06:23:15.595Z,8.16
2022-09-28T06:28:17.792Z,8.37
2022-09-28T06:33:19.511Z,8.57
2022-09-28T06:38:21.314Z,8.72
2022-09-28T06:43:24.650Z,8.75
2022-09-28T06:49:01.887Z,8.68
2022-09-28T06:54:25.747Z,8.89
2022-09-28T06:59:42.356Z,9.07
2022-09-28T07:04:45.205Z,9.31
2022-09-28T07:10:11.746Z,9.42
2022-09-28T07:15:36.555Z,9.46
2022-09-28T07:20:50.743Z,9.54
2022-09-28T07:25:54.563Z,9.44
2022-09-28T07:31:14.523Z,9.36
2022-09-28T07:36:42.366Z,8.95
2022-09-28T07:41:44.313Z,9.22
2022-09-28T07:46:46.647Z,9.50
2022-09-28T07:51:59.812Z,9.75
2022-09-28T07:57:01.419Z,9.70
2022-09-28T08:02:12.553Z,9.77
2022-09-28T08:07:21.559Z,9.77
2022-09-28T08:12:31.708Z,9.48
2022-09-28T08:18:02.724Z,9.55
2022-09-28T08:23:09.522Z,9.44
2022-09-28T08:28:13.212Z,9.17
2022-09-28T08:33:23.912Z,8.92
2022-09-28T08:38:43.895Z,8.75
2022-09-28T08:44:13.824Z,8.59
2022-09-28T08:49:45.244Z,8.47
2022-09-28T08:55:19.506Z,8.60
2022-09-28T09:00:49.210Z,8.44
2022-09-28T09:06:22.923Z,8.37
2022-09-28T09:11:57.021Z,8.37
2022-09-28T09:17:18.597Z,8.90
2022-09-28T09:22:59.199Z,8.96
2022-09-28T09:28:35.394Z,9.05
2022-09-28T09:34:19.856Z,9.33
2022-09-28T09:39:43.665Z,9.46
2022-09-28T09:45:17.575Z,9.23
2022-09-28T09:50:54.365Z,9.61
2022-09-28T09:56:02.451Z,9.74
2022-09-28T10:01:34.665Z,9.61
2022-09-28T10:07:04.607Z,10.54
2022-09-28T10:12:10.278Z,10.89
2022-09-28T10:17:18.414Z,10.43
2022-09-28T10:23:02.136Z,10.36
2022-09-28T10:28:07.625Z,10.55
2022-09-28T10:33:31.537Z,10.25
2022-09-28T10:38:34.228Z,9.70
2022-09-28T10:44:10.683Z,10.79
2022-09-28T10:49:22.221Z,10.94
2022-09-28T10:54:30.850Z,11.30
2022-09-28T10:59:40.965Z,11.77
2022-09-28T11:05:03.707Z,11.49
2022-09-28T11:10:21.219Z,11.01
2022-09-28T11:15:31.631Z,9.93
2022-09-28T11:20:35.992Z,9.91
2022-09-28T11:25:41.200Z,11.19
2022-09-28T11:30:51.791Z,12.17
2022-09-28T11:36:12.357Z,14.82
2022-09-28T11:41:46.105Z,17.01
2022-09-28T11:47:04.083Z,13.51
2022-09-28T11:52:14.593Z,12.07
2022-09-28T11:57:22.271Z,11.33
2022-09-28T12:02:31.027Z,12.04
2022-09-28T12:07:49.455Z,13.20
2022-09-28T12:13:16.633Z,12.51
2022-09-28T12:18:24.359Z,13.27
2022-09-28T12:23:38.199Z,13.25
2022-09-28T12:28:45.981Z,11.74
2022-09-28T12:33:50.964Z,11.57
2022-09-28T12:39:30.781Z,12.15
2022-09-28T12:44:36.271Z,12.56
2022-09-28T12:50:37.170Z,11.95
2022-09-28T12:55:30.706Z,11.85
2022-09-28T13:00:57.641Z,11.80
2022-09-28T13:06:05.464Z,11.90
2022-09-28T13:11:52.164Z,11.13
2022-09-28T13:17:20.116Z,11.36
2022-09-28T13:22:49.999Z,11.34
2022-09-28T13:27:56.661Z,11.83
2022-09-28T13:33:01.313Z,11.61
2022-09-28T13:38:17.932Z,11.69
2022-09-28T13:43:31.535Z,11.66
2022-09-28T13:48:55.686Z,11.47
2022-09-28T13:54:38.210Z,11.83
2022-09-28T14:00:22.390Z,11.27
2022-09-28T14:05:25.164Z,11.55
2022-09-28T14:10:54.229Z,11.34
2022-09-28T14:16:18.541Z,11.11
2022-09-28T14:21:46.046Z,10.84
2022-09-28T14:27:03.473Z,11.13
2022-09-28T14:32:22.435Z,10.77
2022-09-28T14:37:59.170Z,10.61
2022-09-28T14:43:24.369Z,11.12
2022-09-28T14:48:48.887Z,12.32
2022-09-28T14:53:51.816Z,12.36
2022-09-28T14:58:58.239Z,12.06
2022-09-28T15:04:04.769Z,12.08
2022-09-28T15:09:06.435Z,11.83
2022-09-28T15:14:10.695Z,12.00
2022-09-28T15:19:28.476Z,11.32
2022-09-28T15:24:31.644Z,10.90
2022-09-28T15:29:33.559Z,10.89
2022-09-28T15:34:52.185Z,10.87
2022-09-28T15:39:56.401Z,10.91
2022-09-28T15:45:13.875Z,10.87
2022-09-28T15:50:22.036Z,10.82
2022-09-28T15:55:32.743Z,10.87
2022-09-28T16:00:35.037Z,10.77
2022-09-28T16:05:46.706Z,10.99
2022-09-28T16:10:53.379Z,10.78
2022-09-28T16:15:59.729Z,10.79
2022-09-28T16:21:20.141Z,10.66
2022-09-28T16:26:38.985Z,10.67
2022-09-28T16:31:43.818Z,10.88
2022-09-28T16:36:48.126Z,10.42
2022-09-28T16:41:56.093Z,10.24
2022-09-28T16:47:00.684Z,10.03
2022-09-28T16:52:02.429Z,10.16
2022-09-28T16:57:06.806Z,10.08
2022-09-28T17:02:44.975Z,10.15
2022-09-28T17:07:42.916Z,10.15
2022-09-28T17:12:44.831Z,10.19
2022-09-28T17:17:47.161Z,9.94
2022-09-28T17:22:50.173Z,10.28
2022-09-28T17:27:54.585Z,9.88
2022-09-28T17:32:56.225Z,9.97
2022-09-28T17:37:57.888Z,9.88
2022-09-28T17:43:00.531Z,10.06
2022-09-28T17:48:02.304Z,9.86
2022-09-28T17:53:06.244Z,9.71
2022-09-28T17:58:22.155Z,9.29
2022-09-28T18:03:25.578Z,9.09
2022-09-28T18:08:27.245Z,8.89
2022-09-28T18:13:29.014Z,8.70
2022-09-28T18:18:31.142Z,8.54
2022-09-28T18:23:36.896Z,8.46
2022-09-28T18:28:38.589Z,8.23
2022-09-28T18:33:41.152Z,7.99
2022-09-28T18:38:42.917Z,7.98
2022-09-28T18:43:50.878Z,7.81
2022-09-28T18:48:52.535Z,7.80
2022-09-28T18:53:54.247Z,7.82
2022-09-28T18:58:58.382Z,7.70
2022-09-28T19:04:01.742Z,7.66
2022-09-28T19:09:03.780Z,7.58
2022-09-28T19:14:05.461Z,7.45
2022-09-28T19:19:07.441Z,7.43
2022-09-28T19:24:13.291Z,7.37
2022-09-28T19:29:15.997Z,7.12
2022-09-28T19:34:18.529Z,7.07
2022-09-28T19:39:20.330Z,7.21
2022-09-28T19:44:25.860Z,6.99
2022-09-28T19:49:29.894Z,7.01
2022-09-28T19:54:36.357Z,7.00
2022-09-28T19:59:39.068Z,6.86
2022-09-28T20:04:40.770Z,6.70
2022-09-28T20:09:42.479Z,6.72
2022-09-28T20:14:44.179Z,6.64
2022-09-28T20:19:45.837Z,6.70
2022-09-28T20:24:47.517Z,6.56
2022-09-28T20:29:49.557Z,6.57
2022-09-28T20:34:51.207Z,6.50
2022-09-28T20:39:53.388Z,6.62
2022-09-28T20:44:55.032Z,6.37
2022-09-28T20:49:56.853Z,6.41
2022-09-28T20:54:58.500Z,6.25
2022-09-28T21:00:00.316Z,6.26
2022-09-28T21:05:01.960Z,6.17
2022-09-28T21:10:03.900Z,6.22
2022-09-28T21:15:06.300Z,6.35
2022-09-28T21:20:08.621Z,6.39
2022-09-28T21:25:10.273Z,6.26
2022-09-28T21:30:12.485Z,6.14
2022-09-28T21:35:14.150Z,6.00
2022-09-28T21:40:15.888Z,5.99
2022-09-28T21:45:17.572Z,5.81
2022-09-28T21:50:24.852Z,5.44
2022-09-28T21:55:26.491Z,5.66
2022-09-28T22:00:28.139Z,5.52
2022-09-28T22:05:30.274Z,5.54
2022-09-28T22:10:31.929Z,5.62
2022-09-28T22:15:33.649Z,5.47
2022-09-28T22:20:35.344Z,5.56
2022-09-28T22:25:36.992Z,5.49
2022-09-28T22:30:38.658Z,5.68
2022-09-28T22:35:40.326Z,5.48
2022-09-28T22:40:47.070Z,5.36
2022-09-28T22:45:49.467Z,5.26
2022-09-28T22:50:51.694Z,5.24
2022-09-28T22:55:53.383Z,5.03
2022-09-28T23:00:57.908Z,5.05
2022-09-28T23:05:59.614Z,5.03
2022-09-28T23:11:01.657Z,4.99
2022-09-28T23:16:07.466Z,5.00
2022-09-28T23:21:18.148Z,5.01
2022-09-28T23:26:23.121Z,5.04
2022-09-28T23:31:28.473Z,5.03
2022-09-28T23:36:31.145Z,5.02
2022-09-28T23:41:32.795Z,5.18
2022-09-28T23:46:34.478Z,5.10
2022-09-28T23:51:38.132Z,5.18
2022-09-28T23:56:39.870Z,5.17
